createdAt,value
2023-04-21T00:01:26.441Z,73.66
2023-04-21T00:03:53.518Z,75.34
2023-04-21T00:06:23.119Z,76.33
2023-04-21T00:08:50.599Z,77.01
2023-04-21T00:11:17.666Z,80.77
2023-04-21T00:13:45.044Z,78.95
2023-04-21T00:16:12.399Z,76.24
2023-04-21T00:18:39.369Z,81.71
2023-04-21T00:21:06.463Z,79.21
2023-04-21T00:23:33.481Z,79.37
2023-04-21T00:26:03.160Z,79.69
2023-04-21T00:28:30.302Z,80.73
2023-04-21T00:30:57.400Z,80.36
2023-04-21T00:33:24.491Z,79.00
2023-04-21T00:35:51.607Z,77.99
2023-04-21T00:38:18.489Z,78.34
2023-04-21T00:40:45.560Z,78.00
2023-04-21T00:43:12.431Z,77.55
2023-04-21T00:45:39.350Z,78.40
2023-04-21T00:48:06.570Z,79.01
2023-04-21T00:50:34.061Z,79.03
2023-04-21T00:53:01.088Z,79.00
2023-04-21T00:55:29.197Z,79.07
2023-04-21T00:57:56.820Z,79.10
2023-04-21T01:00:23.873Z,77.22
2023-04-21T01:02:51.243Z,80.61
2023-04-21T01:05:18.560Z,77.16
2023-04-21T01:07:46.060Z,75.17
2023-04-21T01:10:13.014Z,75.97
2023-04-21T01:12:45.110Z,75.21
2023-04-21T01:15:17.585Z,74.53
2023-04-21T01:17:45.584Z,73.51
2023-04-21T01:20:14.710Z,73.22
2023-04-21T01:22:44.776Z,73.98
2023-04-21T01:25:11.768Z,73.77
2023-04-21T01:27:38.722Z,73.65
2023-04-21T01:30:07.681Z,72.83
2023-04-21T01:32:34.667Z,72.41
2023-04-21T01:35:02.040Z,71.56
2023-04-21T01:37:31.581Z,70.45
2023-04-21T01:40:00.707Z,71.87
2023-04-21T01:42:29.655Z,74.08
2023-04-21T01:44:57.173Z,73.82
2023-04-21T01:47:25.694Z,75.33
2023-04-21T01:49:53.319Z,76.24
2023-04-21T01:52:20.738Z,75.77
2023-04-21T01:54:47.934Z,75.82
2023-04-21T01:57:15.593Z,75.82
2023-04-21T01:59:42.634Z,75.76
2023-04-21T02:02:10.295Z,73.43
2023-04-21T02:04:37.543Z,75.11
2023-04-21T02:07:04.531Z,84.75
2023-04-21T02:09:32.327Z,82.19
2023-04-21T02:11:59.289Z,80.18
2023-04-21T02:14:26.502Z,77.42
2023-04-21T02:16:53.614Z,79.75
2023-04-21T02:19:20.893Z,78.23
2023-04-21T02:21:48.106Z,83.57
2023-04-21T02:24:15.030Z,79.74
2023-04-21T02:26:41.929Z,79.98
2023-04-21T02:29:08.867Z,80.62
2023-04-21T02:31:46.119Z,80.54
2023-04-21T02:34:21.638Z,80.89
2023-04-21T02:36:48.820Z,82.18
2023-04-21T02:39:15.677Z,84.93
2023-04-21T02:41:42.603Z,86.36
2023-04-21T02:44:09.544Z,86.09
2023-04-21T02:46:36.470Z,87.05
2023-04-21T02:49:03.483Z,86.70
2023-04-21T02:51:30.382Z,85.00
2023-04-21T02:53:57.653Z,83.76
2023-04-21T02:56:24.579Z,83.65
2023-04-21T02:58:51.463Z,82.41
2023-04-21T03:01:18.538Z,81.78
2023-04-21T03:03:46.391Z,83.02
2023-04-21T03:06:13.310Z,82.35
2023-04-21T03:08:40.332Z,82.59
2023-04-21T03:11:07.159Z,89.03
2023-04-21T03:13:34.087Z,85.17
2023-04-21T03:16:01.166Z,85.84
2023-04-21T03:18:28.438Z,85.01
2023-04-21T03:21:00.354Z,86.26
2023-04-21T03:23:27.233Z,87.14
2023-04-21T03:25:54.217Z,86.02
2023-04-21T03:28:21.169Z,84.65
2023-04-21T03:30:48.092Z,82.39
2023-04-21T03:33:15.069Z,80.25
2023-04-21T03:35:41.981Z,80.09
2023-04-21T03:38:08.943Z,79.19
2023-04-21T03:40:35.861Z,79.56
2023-04-21T03:43:02.823Z,78.94
2023-04-21T03:45:29.713Z,79.35
2023-04-21T03:47:57.193Z,79.06
2023-04-21T03:50:24.252Z,84.59
2023-04-21T03:52:51.173Z,80.30
2023-04-21T03:55:18.151Z,80.28
2023-04-21T03:57:45.126Z,81.65
2023-04-21T04:00:13.100Z,80.51
2023-04-21T04:02:40.908Z,80.66
2023-04-21T04:05:08.725Z,82.83
2023-04-21T04:07:35.886Z,82.22
2023-04-21T04:10:02.923Z,81.64
2023-04-21T04:12:30.092Z,81.27
2023-04-21T04:14:57.028Z,79.92
2023-04-21T04:17:24.016Z,80.55
2023-04-21T04:19:50.983Z,79.38
2023-04-21T04:22:17.876Z,82.45
2023-04-21T04:24:45.363Z,82.39
2023-04-21T04:27:14.378Z,84.10
2023-04-21T04:29:41.499Z,82.14
2023-04-21T04:32:11.324Z,81.86
2023-04-21T04:34:38.434Z,82.27
2023-04-21T04:37:05.391Z,83.17
2023-04-21T04:39:32.692Z,80.75
2023-04-21T04:41:59.982Z,80.23
2023-04-21T04:44:27.027Z,80.73
2023-04-21T04:46:54.492Z,84.83
2023-04-21T04:49:23.581Z,83.28
2023-04-21T04:51:51.198Z,84.19
2023-04-21T04:54:18.595Z,82.15
2023-04-21T04:56:46.280Z,84.89
2023-04-21T04:59:13.271Z,82.62
2023-04-21T05:01:42.155Z,83.02
2023-04-21T05:04:09.492Z,82.75
2023-04-21T05:06:36.620Z,82.64
2023-04-21T05:09:05.179Z,86.92
2023-04-21T05:11:32.281Z,88.79
2023-04-21T05:13:59.607Z,86.78
2023-04-21T05:16:26.705Z,86.37
2023-04-21T05:18:54.327Z,90.02
2023-04-21T05:21:28.949Z,88.53
2023-04-21T05:23:57.470Z,87.69
2023-04-21T05:26:25.997Z,84.92
2023-04-21T05:28:53.385Z,88.78
2023-04-21T05:31:20.439Z,92.11
2023-04-21T05:33:47.383Z,88.71
2023-04-21T05:36:14.391Z,93.30
2023-04-21T05:38:41.296Z,95.45
2023-04-21T05:41:08.711Z,92.14
2023-04-21T05:43:35.742Z,94.58
2023-04-21T05:46:04.199Z,92.52
2023-04-21T05:48:31.272Z,95.48
2023-04-21T05:50:58.298Z,91.74
2023-04-21T05:53:25.372Z,92.62
2023-04-21T05:55:52.422Z,91.63
2023-04-21T05:58:19.422Z,89.92
2023-04-21T06:00:48.954Z,90.14
2023-04-21T06:03:16.505Z,88.82
2023-04-21T06:05:43.676Z,88.88
2023-04-21T06:08:10.618Z,87.17
2023-04-21T06:10:37.795Z,83.12
2023-04-21T06:13:04.740Z,82.47
2023-04-21T06:15:31.732Z,79.35
2023-04-21T06:17:58.853Z,78.95
2023-04-21T06:20:29.087Z,78.50
2023-04-21T06:22:58.445Z,81.23
2023-04-21T06:25:25.481Z,81.67
2023-04-21T06:27:52.708Z,80.35
2023-04-21T06:30:19.685Z,77.30
2023-04-21T06:32:47.999Z,73.09
2023-04-21T06:35:15.533Z,71.39
2023-04-21T06:37:42.535Z,69.69
2023-04-21T06:40:10.017Z,68.55
2023-04-21T06:42:36.988Z,66.15
2023-04-21T06:45:04.260Z,63.75
2023-04-21T06:47:31.291Z,61.71
2023-04-21T06:49:58.248Z,57.37
2023-04-21T06:52:25.241Z,54.38
2023-04-21T06:54:52.338Z,54.62
2023-04-21T06:57:19.438Z,52.45
2023-04-21T06:59:46.398Z,47.22
2023-04-21T07:02:13.331Z,46.86
2023-04-21T07:04:40.419Z,45.11
2023-04-21T07:07:07.497Z,45.14
2023-04-21T07:09:34.528Z,46.16
2023-04-21T07:12:02.950Z,44.76
2023-04-21T07:14:30.207Z,46.52
2023-04-21T07:16:57.654Z,44.98
2023-04-21T07:19:24.670Z,46.67
2023-04-21T07:21:51.678Z,46.25
2023-04-21T07:24:18.715Z,44.90
2023-04-21T07:26:45.783Z,46.01
2023-04-21T07:29:18.914Z,44.82
2023-04-21T07:31:48.498Z,46.22
2023-04-21T07:34:17.624Z,46.74
2023-04-21T07:36:47.223Z,46.07
2023-04-21T07:39:14.283Z,46.59
2023-04-21T07:41:41.247Z,44.78
2023-04-21T07:44:08.259Z,44.98
2023-04-21T07:46:35.332Z,44.95
2023-04-21T07:49:17.985Z,45.85
2023-04-21T07:51:45.300Z,46.05
2023-04-21T07:54:12.975Z,44.33
2023-04-21T07:56:40.413Z,43.50
2023-04-21T07:59:07.557Z,44.20
2023-04-21T08:01:34.888Z,42.78
2023-04-21T08:04:02.066Z,45.46
2023-04-21T08:06:32.238Z,42.86
2023-04-21T08:09:00.021Z,42.26
2023-04-21T08:11:28.798Z,39.58
2023-04-21T08:13:55.804Z,40.63
2023-04-21T08:16:22.903Z,41.70
2023-04-21T08:18:50.023Z,40.34
2023-04-21T08:21:17.023Z,44.08
2023-04-21T08:23:44.049Z,43.17
2023-04-21T08:26:12.590Z,41.91
2023-04-21T08:28:39.930Z,43.03
2023-04-21T08:31:07.020Z,41.46
2023-04-21T08:33:34.114Z,43.16
2023-04-21T08:36:07.500Z,41.36
2023-04-21T08:38:39.722Z,45.25
2023-04-21T08:41:08.669Z,40.14
2023-04-21T08:43:35.650Z,41.84
2023-04-21T08:46:07.281Z,41.45
2023-04-21T08:48:38.638Z,45.67
2023-04-21T08:51:12.595Z,42.43
2023-04-21T08:53:41.919Z,42.20
2023-04-21T08:56:11.627Z,43.80
2023-04-21T08:58:39.187Z,42.53
2023-04-21T09:01:06.530Z,41.56
2023-04-21T09:03:33.769Z,42.04
2023-04-21T09:06:03.455Z,42.69
2023-04-21T09:08:31.301Z,41.30
2023-04-21T09:11:00.098Z,41.51
2023-04-21T09:13:45.274Z,40.91
2023-04-21T09:16:21.781Z,42.57
2023-04-21T09:18:50.364Z,41.80
2023-04-21T09:21:19.311Z,41.19
2023-04-21T09:23:51.114Z,40.85
2023-04-21T09:26:19.802Z,38.32
2023-04-21T09:28:49.051Z,39.24
2023-04-21T09:31:21.780Z,40.99
2023-04-21T09:34:00.440Z,39.56
2023-04-21T09:36:32.286Z,41.85
2023-04-21T09:41:33.656Z,34.86
2023-04-21T09:44:05.110Z,32.61
2023-04-21T09:46:37.164Z,33.18
2023-04-21T09:49:08.804Z,34.54
2023-04-21T09:56:55.113Z,34.27
2023-04-21T09:59:29.644Z,32.65
2023-04-21T10:02:00.298Z,31.67
2023-04-21T10:04:31.820Z,33.24
2023-04-21T10:07:00.815Z,29.86
2023-04-21T10:09:51.329Z,31.52
2023-04-21T10:12:18.661Z,29.09
2023-04-21T10:14:45.811Z,34.49
2023-04-21T10:17:13.089Z,36.02
2023-04-21T10:19:50.161Z,34.22
2023-04-21T10:22:28.060Z,34.75
2023-04-21T10:25:00.537Z,34.61
2023-04-21T10:27:41.419Z,36.05
2023-04-21T10:30:26.780Z,34.63
2023-04-21T10:33:05.069Z,36.69
2023-04-21T10:36:01.327Z,37.05
2023-04-21T10:38:57.962Z,35.00
2023-04-21T10:41:32.767Z,35.52
2023-04-21T10:44:16.607Z,39.55
2023-04-21T10:49:30.884Z,38.84
2023-04-21T10:52:03.673Z,38.33
2023-04-21T10:54:53.969Z,37.71
2023-04-21T10:57:21.387Z,36.63
2023-04-21T10:59:49.851Z,37.83
2023-04-21T11:02:18.882Z,36.07
2023-04-21T11:04:51.085Z,35.68
2023-04-21T11:07:25.908Z,36.76
2023-04-21T11:10:01.778Z,37.18
2023-04-21T11:12:32.853Z,36.74
2023-04-21T11:15:03.293Z,34.66
2023-04-21T11:17:30.871Z,36.51
2023-04-21T11:19:57.804Z,36.22
2023-04-21T11:22:26.631Z,36.76
2023-04-21T11:24:58.091Z,37.57
2023-04-21T11:27:27.761Z,39.07
2023-04-21T11:29:54.729Z,36.13
2023-04-21T11:32:21.890Z,34.81
2023-04-21T11:34:48.903Z,36.44
2023-04-21T11:37:17.627Z,35.40
2023-04-21T11:39:45.052Z,36.96
2023-04-21T11:42:12.396Z,36.20
2023-04-21T11:44:41.613Z,38.43
2023-04-21T11:47:19.165Z,41.54
2023-04-21T11:49:51.780Z,39.59
2023-04-21T11:52:25.402Z,38.17
2023-04-21T11:55:07.578Z,36.30
2023-04-21T11:57:34.786Z,39.80
2023-04-21T12:00:03.599Z,38.94
2023-04-21T12:02:32.763Z,39.58
2023-04-21T12:05:04.870Z,40.15
2023-04-21T12:07:56.417Z,44.91
2023-04-21T12:10:23.537Z,42.08
2023-04-21T12:12:51.552Z,42.44
2023-04-21T12:15:23.460Z,43.05
2023-04-21T12:17:52.520Z,42.69
2023-04-21T12:20:21.279Z,44.57
2023-04-21T12:22:49.356Z,43.98
2023-04-21T12:25:16.541Z,43.41
2023-04-21T12:27:54.411Z,43.53
2023-04-21T12:30:21.842Z,42.77
2023-04-21T12:32:49.404Z,42.52
2023-04-21T12:35:16.486Z,43.58
2023-04-21T12:37:43.474Z,43.67
2023-04-21T12:40:10.924Z,43.40
2023-04-21T12:42:38.470Z,42.66
2023-04-21T12:45:06.978Z,43.06
2023-04-21T12:47:35.354Z,41.07
2023-04-21T12:50:02.605Z,42.44
2023-04-21T12:52:29.624Z,42.64
2023-04-21T12:54:56.537Z,42.93
2023-04-21T12:57:23.637Z,41.06
2023-04-21T12:59:50.647Z,41.21
2023-04-21T13:02:18.118Z,41.69
2023-04-21T13:04:45.343Z,42.59
2023-04-21T13:07:12.904Z,40.43
2023-04-21T13:09:40.357Z,41.91
2023-04-21T13:12:07.909Z,40.64
2023-04-21T13:14:35.182Z,42.49
2023-04-21T13:17:04.157Z,40.37
2023-04-21T13:19:32.024Z,38.90
2023-04-21T13:21:59.771Z,38.55
2023-04-21T13:24:27.232Z,40.53
2023-04-21T13:26:55.260Z,38.84
2023-04-21T13:29:22.336Z,38.95
2023-04-21T13:31:49.568Z,38.49
2023-04-21T13:34:16.984Z,39.52
2023-04-21T13:36:44.065Z,38.22
2023-04-21T13:39:11.516Z,37.04
2023-04-21T13:41:38.786Z,35.96
2023-04-21T13:44:05.970Z,36.03
2023-04-21T13:46:34.020Z,36.89
2023-04-21T13:49:01.374Z,38.66
2023-04-21T13:51:31.278Z,38.29
2023-04-21T13:53:58.820Z,39.17
2023-04-21T13:56:26.144Z,39.80
2023-04-21T13:58:53.843Z,39.91
2023-04-21T14:01:21.790Z,39.20
2023-04-21T14:03:49.431Z,40.35
2023-04-21T14:06:16.804Z,39.33
2023-04-21T14:08:43.809Z,39.24
2023-04-21T14:11:10.810Z,39.98
2023-04-21T14:13:45.464Z,39.22
2023-04-21T14:16:19.316Z,38.56
2023-04-21T14:18:47.482Z,37.51
2023-04-21T14:21:14.511Z,39.63
2023-04-21T14:23:41.516Z,38.71
2023-04-21T14:26:08.593Z,39.37
2023-04-21T14:28:35.899Z,40.21
2023-04-21T14:31:03.016Z,40.93
2023-04-21T14:33:30.315Z,40.24
2023-04-21T14:35:57.316Z,41.80
2023-04-21T14:38:24.703Z,38.60
2023-04-21T14:40:54.752Z,38.32
2023-04-21T14:43:22.068Z,38.76
2023-04-21T14:45:49.214Z,38.08
2023-04-21T14:48:16.732Z,39.48
2023-04-21T14:50:44.188Z,36.99
2023-04-21T14:53:11.494Z,38.71
2023-04-21T14:55:38.422Z,38.63
2023-04-21T14:58:05.375Z,37.46
2023-04-21T15:00:32.966Z,37.37
2023-04-21T15:03:00.171Z,39.75
2023-04-21T15:05:27.304Z,37.33
2023-04-21T15:07:54.294Z,37.23
2023-04-21T15:10:21.301Z,35.86
2023-04-21T15:12:48.409Z,35.95
2023-04-21T15:15:15.347Z,38.45
2023-04-21T15:17:42.323Z,38.48
2023-04-21T15:20:10.461Z,36.95
2023-04-21T15:22:37.834Z,38.94
2023-04-21T15:25:05.186Z,37.88
2023-04-21T15:27:32.116Z,37.25
2023-04-21T15:29:59.088Z,38.04
2023-04-21T15:32:26.566Z,39.86
2023-04-21T15:34:53.644Z,38.41
2023-04-21T15:37:24.248Z,38.93
2023-04-21T15:39:52.532Z,40.23
2023-04-21T15:42:19.580Z,38.22
2023-04-21T15:44:47.204Z,38.41
2023-04-21T15:47:16.690Z,38.94
2023-04-21T15:49:43.706Z,39.52
2023-04-21T15:52:11.344Z,39.72
2023-04-21T15:54:38.840Z,38.78
2023-04-21T15:57:06.467Z,38.69
2023-04-21T15:59:33.438Z,39.48
2023-04-21T16:02:00.551Z,38.75
2023-04-21T16:04:28.058Z,38.89
2023-04-21T16:06:55.180Z,40.84
2023-04-21T16:09:22.716Z,39.52
2023-04-21T16:11:52.572Z,39.91
2023-04-21T16:14:19.700Z,40.69
2023-04-21T16:16:46.860Z,39.97
2023-04-21T16:19:14.029Z,40.08
2023-04-21T16:21:42.267Z,41.54
2023-04-21T16:24:09.374Z,41.65
2023-04-21T16:26:36.978Z,41.32
2023-04-21T16:29:04.161Z,40.99
2023-04-21T16:31:31.862Z,40.69
2023-04-21T16:34:00.466Z,40.62
2023-04-21T16:36:28.695Z,41.85
2023-04-21T16:38:56.348Z,41.22
2023-04-21T16:41:23.819Z,40.22
2023-04-21T16:43:51.016Z,41.17
2023-04-21T16:46:18.474Z,40.67
2023-04-21T16:48:45.710Z,42.01
2023-04-21T16:51:12.833Z,40.75
2023-04-21T16:53:40.447Z,41.27
2023-04-21T16:56:07.761Z,40.56
2023-04-21T16:58:34.806Z,41.37
2023-04-21T17:01:01.889Z,41.62
2023-04-21T17:03:29.505Z,41.09
2023-04-21T17:05:56.559Z,41.96
2023-04-21T17:08:23.533Z,41.34
2023-04-21T17:10:50.681Z,42.07
2023-04-21T17:13:17.655Z,41.36
2023-04-21T17:15:44.614Z,40.65
2023-04-21T17:18:11.729Z,41.50
2023-04-21T17:20:39.065Z,41.00
2023-04-21T17:23:06.291Z,40.81
2023-04-21T17:25:33.330Z,41.17
2023-04-21T17:28:00.313Z,41.04
2023-04-21T17:30:27.278Z,40.88
2023-04-21T17:33:04.228Z,41.23
2023-04-21T17:35:46.054Z,40.90
2023-04-21T17:38:19.352Z,40.61
2023-04-21T17:40:46.268Z,41.08
2023-04-21T17:43:13.431Z,41.15
2023-04-21T17:45:40.646Z,41.23
2023-04-21T17:48:07.709Z,40.77
2023-04-21T17:50:34.668Z,40.52
2023-04-21T17:53:01.718Z,40.73
2023-04-21T17:55:28.738Z,41.10
2023-04-21T17:57:55.709Z,41.51
2023-04-21T18:00:22.629Z,41.83
2023-04-21T18:02:49.533Z,42.04
2023-04-21T18:05:17.349Z,42.04
2023-04-21T18:07:44.521Z,41.73
2023-04-21T18:10:11.617Z,41.20
2023-04-21T18:12:38.562Z,41.22
2023-04-21T18:15:05.959Z,42.71
2023-04-21T18:17:32.904Z,43.36
2023-04-21T18:19:59.822Z,43.41
2023-04-21T18:22:27.028Z,42.99
2023-04-21T18:24:54.202Z,44.09
2023-04-21T18:27:21.311Z,44.12
2023-04-21T18:29:48.250Z,44.41
2023-04-21T18:32:15.195Z,45.29
2023-04-21T18:34:42.325Z,45.56
2023-04-21T18:37:09.386Z,45.77
2023-04-21T18:39:36.537Z,46.69
2023-04-21T18:42:03.728Z,46.77
2023-04-21T18:44:30.799Z,47.02
2023-04-21T18:46:58.563Z,46.62
2023-04-21T18:49:25.545Z,49.18
2023-04-21T18:51:52.541Z,48.25
2023-04-21T18:54:19.403Z,49.86
2023-04-21T18:56:46.854Z,50.38
2023-04-21T18:59:13.925Z,51.45
2023-04-21T19:01:41.877Z,51.74
2023-04-21T19:04:11.857Z,53.62
2023-04-21T19:06:38.872Z,52.81
2023-04-21T19:09:05.819Z,57.61
2023-04-21T19:11:33.673Z,57.81
2023-04-21T19:14:00.670Z,56.57
2023-04-21T19:16:28.599Z,56.04
2023-04-21T19:18:55.641Z,55.46
2023-04-21T19:21:22.652Z,54.71
2023-04-21T19:23:49.629Z,54.28
2023-04-21T19:26:16.709Z,53.96
2023-04-21T19:28:44.133Z,55.20
2023-04-21T19:31:11.284Z,55.90
2023-04-21T19:33:38.272Z,56.23
2023-04-21T19:36:05.861Z,56.80
2023-04-21T19:38:33.754Z,56.22
2023-04-21T19:41:00.730Z,56.14
2023-04-21T19:43:27.671Z,55.44
2023-04-21T19:45:54.726Z,55.70
2023-04-21T19:48:21.867Z,55.80
2023-04-21T19:50:48.819Z,55.52
2023-04-21T19:53:15.933Z,55.69
2023-04-21T19:55:43.824Z,55.75
2023-04-21T19:58:10.805Z,55.71
2023-04-21T20:00:37.976Z,55.36
2023-04-21T20:03:07.216Z,55.92
2023-04-21T20:05:34.338Z,56.04
2023-04-21T20:08:01.497Z,55.99
2023-04-21T20:10:28.448Z,56.25
2023-04-21T20:12:55.354Z,56.00
2023-04-21T20:15:22.822Z,55.97
2023-04-21T20:17:50.243Z,57.64
2023-04-21T20:20:17.784Z,59.28
2023-04-21T20:22:44.898Z,63.16
2023-04-21T20:25:13.079Z,64.61
2023-04-21T20:27:40.283Z,64.21
2023-04-21T20:30:08.215Z,63.48
2023-04-21T20:32:35.331Z,61.97
2023-04-21T20:35:02.449Z,59.99
2023-04-21T20:37:29.890Z,60.70
2023-04-21T20:39:57.394Z,61.52
2023-04-21T20:42:24.355Z,61.66
2023-04-21T20:44:51.376Z,60.46
2023-04-21T20:47:18.405Z,58.17
2023-04-21T20:49:47.538Z,57.03
2023-04-21T20:52:15.468Z,56.72
2023-04-21T20:54:42.488Z,59.72
2023-04-21T20:57:10.488Z,59.67
2023-04-21T20:59:37.593Z,57.88
2023-04-21T21:02:05.219Z,59.14
2023-04-21T21:04:32.351Z,60.05
2023-04-21T21:06:59.814Z,60.23
2023-04-21T21:09:26.776Z,60.27
2023-04-21T21:11:53.866Z,61.11
2023-04-21T21:14:20.755Z,59.74
2023-04-21T21:16:47.770Z,59.38
2023-04-21T21:19:15.076Z,57.58
2023-04-21T21:21:42.110Z,59.72
2023-04-21T21:24:09.060Z,59.08
2023-04-21T21:26:36.024Z,59.82
2023-04-21T21:29:03.321Z,59.44
2023-04-21T21:31:30.256Z,57.74
2023-04-21T21:33:58.412Z,60.50
2023-04-21T21:36:25.556Z,61.84
2023-04-21T21:38:52.461Z,61.08
2023-04-21T21:41:19.908Z,61.86
2023-04-21T21:43:47.069Z,60.96
2023-04-21T21:46:14.058Z,60.09
2023-04-21T21:48:42.742Z,62.30
2023-04-21T21:51:09.704Z,63.30
2023-04-21T21:53:36.636Z,63.86
2023-04-21T21:56:03.637Z,66.89
2023-04-21T21:58:30.992Z,67.76
2023-04-21T22:00:58.229Z,68.71
2023-04-21T22:03:25.826Z,70.41
2023-04-21T22:05:53.012Z,71.17
2023-04-21T22:08:19.963Z,71.51
2023-04-21T22:10:46.945Z,69.76
2023-04-21T22:13:13.892Z,68.67
2023-04-21T22:15:41.492Z,67.63
2023-04-21T22:18:09.982Z,66.98
2023-04-21T22:20:37.122Z,64.88
2023-04-21T22:23:04.346Z,65.33
2023-04-21T22:25:31.453Z,65.43
2023-04-21T22:27:58.409Z,66.06
2023-04-21T22:30:26.072Z,66.93
2023-04-21T22:32:53.014Z,67.32
2023-04-21T22:35:20.192Z,67.46
2023-04-21T22:37:47.083Z,67.63
2023-04-21T22:40:14.163Z,66.92
2023-04-21T22:42:41.212Z,66.55
2023-04-21T22:45:08.683Z,66.55
2023-04-21T22:47:35.914Z,67.01
2023-04-21T22:50:04.574Z,68.05
2023-04-21T22:52:31.579Z,69.24
2023-04-21T22:54:58.560Z,66.80
2023-04-21T22:57:25.943Z,64.84
2023-04-21T22:59:52.981Z,65.54
2023-04-21T23:02:20.014Z,65.53
2023-04-21T23:04:46.983Z,67.37
2023-04-21T23:07:13.926Z,66.94
2023-04-21T23:09:40.971Z,66.83
2023-04-21T23:12:08.549Z,64.57
2023-04-21T23:14:35.578Z,66.63
2023-04-21T23:17:02.566Z,68.58
2023-04-21T23:19:29.702Z,67.51
2023-04-21T23:21:56.733Z,66.00
2023-04-21T23:24:23.589Z,65.85
2023-04-21T23:26:50.746Z,64.59
2023-04-21T23:29:17.858Z,63.88
2023-04-21T23:31:45.138Z,64.34
2023-04-21T23:34:12.125Z,64.44
2023-04-21T23:36:39.013Z,66.30
2023-04-21T23:39:06.435Z,66.24
2023-04-21T23:41:33.506Z,66.07
2023-04-21T23:44:00.521Z,64.96
2023-04-21T23:46:27.554Z,65.78
2023-04-21T23:48:54.733Z,68.48
2023-04-21T23:51:22.248Z,67.15
2023-04-21T23:53:49.358Z,67.02
2023-04-21T23:56:16.585Z,65.85
2023-04-21T23:58:43.563Z,65.23
